Дата Пункты Температура Давл., мм. Влажн., % Ветер Погодные явления
Воздуха Воды Направл. Скорость
11.10.14 02:00 Одесса 13.0 14.0 763 88 Пн-С 1 15 часов
11.10.14 08:00 Одесса 11.0 14.0 764 96 Пн-С 2 09 часов
11.10.14 05:00 Одесса 9.0 14.0 764 99 Пн-З 1 06 часов
11.10.14 02:00 Одесса 9.0 14.0 764 99 Пн 1 03 часа
10.10.14 08:00 Одесса 10.0 14.0 765 97 Пн-С 1 21 час
10.10.14 05:00 Одесса 13.0 15.0 765 92 Пд-С 1 18 часов
10.10.14 02:00 Одесса 15.0 15.0 766 82 С 2 15 часов
10.10.14 11:00 Одесса 14.0 14.0 766 82 Пн-С 2 12 часов
10.10.14 08:00 Одесса 13.0 14.0 766 83 С 5 09 часов
10.10.14 05:00 Одесса 7.0 14.0 765 99 Пн 1 06 часов
10.10.14 02:00 Одесса 7.0 14.0 765 94 Пн-З 1 03 часа
09.10.14 08:00 Одесса 8.0 14.0 766 91 Пд-З 1 21 час
09.10.14 05:00 Одесса 13.0 15.0 766 69 Пд-С 1 18 часов
09.10.14 02:00 Одесса 14.0 15.0 766 60 С 2 15 часов
09.10.14 11:00 Одесса 14.0 14.0 767 75 С 3 12 часов
09.10.14 08:00 Одесса 12.0 14.0 767 86 Пн-С 5 09 часов
09.10.14 05:00 Одесса 12.0 15.0 766 76 Пн-С 4 06 часов
09.10.14 02:00 Одесса 13.0 15.0 766 66 С 6 03 часа
08.10.14 08:00 Одесса 14.0 15.0 767 73 С 4 21 час
08.10.14 05:00 Одесса 15.0 16.0 767 60 С 4 18 часов
Количество строк
441 442 443 444 445 446 447 448 449 450
Page 448 of 458